Hizir — 9HA3348 — position and weather

sailwx.info

Track history (hours):
 
Tides and Currents Weather Stations Pressure Air Temp Water Temp Dewpoint Dewpoint Depression Visibility Wind Speed Wind Dir Waves Ship Positions

Hizir

Last reported at 2017-Dec-11 17:00 UTC. Time now 2017-Dec-12 23:55 UTC.
Position N 37°49' E 026°26'.

Length 121 m; draft 6.9 m.

Type: Cargo ship. MMSI: 229459000.

Date/timePositionNaut miles runAvg speedWind from/ knotsBaromVisibWave heightAir tempDewpointWater temp
2017-Dec-11 17:00N 37°49' E 026°26'5 9.4
2017-Dec-11 16:30N 37°54' E 026°24'5 9.3
2017-Dec-11 16:00N 37°58' E 026°21'  
2017-Dec-09 01:37N 43°27' E 029°32'1 8.6
2017-Dec-09 01:30N 43°28' E 029°32'4 8.7
2017-Dec-09 01:00N 43°33' E 029°33'5 8.7
2017-Dec-09 00:29N 43°37' E 029°34'4 8.6
2017-Dec-09 00:00N 43°41' E 029°34'4 8.6
2017-Dec-08 23:30N 43°46' E 029°35'4 8.7
2017-Dec-08 23:00N 43°50' E 029°36'4 8.8
2017-Dec-08 22:30N 43°54' E 029°37'4 8.8
2017-Dec-08 22:00N 43°59' E 029°37'5 8.6
2017-Dec-08 21:28N 44°03' E 029°38'4 8.4
2017-Dec-08 21:00N 44°07' E 029°39'4 8.5
2017-Dec-08 20:30N 44°11' E 029°40'4 8.5
2017-Dec-08 20:00N 44°15' E 029°40'4 8.2
2017-Dec-08 19:30N 44°20' E 029°41'4 8.4
2017-Dec-08 19:00N 44°24' E 029°42'4 8.4
2017-Dec-08 18:30N 44°28' E 029°43'4 8.7
2017-Dec-08 18:00N 44°32' E 029°43'4 8.9
2017-Dec-08 17:30N 44°37' E 029°44'4 8.8
2017-Dec-08 17:00N 44°41' E 029°45'  
Track history (hours):
 
Tides and Currents Weather Stations Pressure Air Temp Water Temp Dewpoint Dewpoint Depression Visibility Wind Speed Wind Dir Waves Ship Positions

Hizir

Last reported at 2017-Dec-11 17:00 UTC. Time now 2017-Dec-12 23:55 UTC.
Position N 37°49' E 026°26'.

Length 121 m; draft 6.9 m.

Type: Cargo ship. MMSI: 229459000.

Date/timePositionNaut miles runAvg speedWind from/ knotsBaromVisibWave heightAir tempDewpointWater temp
2017-Dec-11 17:00N 37°49' E 026°26'5 9.4
2017-Dec-11 16:30N 37°54' E 026°24'5 9.3
2017-Dec-11 16:00N 37°58' E 026°21'  
2017-Dec-09 01:37N 43°27' E 029°32'1 8.6
2017-Dec-09 01:30N 43°28' E 029°32'4 8.7
2017-Dec-09 01:00N 43°33' E 029°33'5 8.7
2017-Dec-09 00:29N 43°37' E 029°34'4 8.6
2017-Dec-09 00:00N 43°41' E 029°34'4 8.6
2017-Dec-08 23:30N 43°46' E 029°35'4 8.7
2017-Dec-08 23:00N 43°50' E 029°36'4 8.8
2017-Dec-08 22:30N 43°54' E 029°37'4 8.8
2017-Dec-08 22:00N 43°59' E 029°37'5 8.6
2017-Dec-08 21:28N 44°03' E 029°38'4 8.4
2017-Dec-08 21:00N 44°07' E 029°39'4 8.5
2017-Dec-08 20:30N 44°11' E 029°40'4 8.5
2017-Dec-08 20:00N 44°15' E 029°40'4 8.2
2017-Dec-08 19:30N 44°20' E 029°41'4 8.4
2017-Dec-08 19:00N 44°24' E 029°42'4 8.4
2017-Dec-08 18:30N 44°28' E 029°43'4 8.7
2017-Dec-08 18:00N 44°32' E 029°43'4 8.9
2017-Dec-08 17:30N 44°37' E 029°44'4 8.8
2017-Dec-08 17:00N 44°41' E 029°45'  

Dump ship's entire track history